Time;durP1;ratioP1;P1;durP2;ratioP2;P2;SDS_P1;SDS_P2;PMS_P1;PMS_P2;Temp;Humidity;BMP_temperature;BMP_pressure;BME280_temperature;BME280_humidity;BME280_pressure;Samples;Min_cycle;Max_cycle;Signal;HPM_P1;HPM_P2
2021/05/07 00:01:56;;;;;;;1999.90;999.90;;;14.90;99.90;;;;;;5055218;28;20161;-43
2021/05/07 00:04:23;;;;;;;1999.90;999.90;;;15.00;99.90;;;;;;5055238;28;20165;-44
2021/05/07 00:06:52;;;;;;;1999.90;999.90;;;14.90;99.90;;;;;;5055264;28;20196;-43
2021/05/07 00:09:19;;;;;;;1999.90;999.90;;;14.90;99.90;;;;;;5055127;28;20173;-44
2021/05/07 00:11:50;;;;;;;1999.90;999.90;;;14.90;99.90;;;;;;5054954;28;20248;-44
2021/05/07 00:14:17;;;;;;;1999.90;999.90;;;14.90;99.90;;;;;;5055000;28;20158;-43
2021/05/07 00:16:44;;;;;;;1999.90;999.90;;;14.90;99.90;;;;;;5054850;28;20271;-44
2021/05/07 00:19:10;;;;;;;1999.90;999.90;;;14.80;99.90;;;;;;5054909;28;20211;-43
2021/05/07 00:21:38;;;;;;;1999.90;999.90;;;14.70;99.90;;;;;;5054849;28;20169;-43
2021/05/07 00:24:05;;;;;;;1999.90;999.90;;;14.70;99.90;;;;;;5054705;28;20495;-43
2021/05/07 00:26:32;;;;;;;1999.90;999.90;;;14.70;99.90;;;;;;5054459;28;20184;-45
2021/05/07 00:28:59;;;;;;;1999.90;999.90;;;14.70;99.90;;;;;;5054694;28;20234;-44
2021/05/07 00:31:27;;;;;;;1999.90;999.90;;;14.70;99.90;;;;;;5054667;28;20272;-43
2021/05/07 00:33:53;;;;;;;1999.90;999.90;;;14.70;99.90;;;;;;5054648;28;20165;-44
2021/05/07 00:36:21;;;;;;;1999.90;999.90;;;14.60;99.90;;;;;;5054460;28;20620;-43
2021/05/07 00:38:47;;;;;;;1999.90;999.90;;;14.60;99.90;;;;;;5054494;28;20216;-43
2021/05/07 00:41:15;;;;;;;1999.90;999.90;;;14.60;99.90;;;;;;5054381;28;20586;-47
2021/05/07 00:43:42;;;;;;;1999.90;999.90;;;14.60;99.90;;;;;;5054398;28;20663;-47
2021/05/07 00:46:09;;;;;;;1999.90;999.90;;;14.60;99.90;;;;;;5054379;28;20180;-44
2021/05/07 00:48:37;;;;;;;1999.90;999.90;;;14.60;99.90;;;;;;5054260;28;20199;-46
2021/05/07 00:51:04;;;;;;;1999.90;999.90;;;14.60;99.90;;;;;;5054243;28;20720;-47
2021/05/07 00:53:31;;;;;;;1999.90;999.90;;;14.50;99.90;;;;;;5054168;28;20168;-45
2021/05/07 00:55:58;;;;;;;1999.90;999.90;;;14.60;99.90;;;;;;5054170;28;20179;-45
2021/05/07 00:58:25;;;;;;;1999.90;999.90;;;14.60;99.90;;;;;;5054149;28;20247;-44
2021/05/07 01:00:53;;;;;;;1999.90;999.90;;;14.50;99.90;;;;;;5053997;28;20181;-44
2021/05/07 01:03:20;;;;;;;1999.90;999.90;;;14.60;99.90;;;;;;5053999;28;20231;-45
2021/05/07 01:05:47;;;;;;;1999.90;999.90;;;14.60;99.90;;;;;;5053671;28;20173;-43
2021/05/07 01:08:15;;;;;;;1999.90;999.90;;;14.70;99.90;;;;;;5053675;28;20543;-48
2021/05/07 01:10:42;;;;;;;1999.90;999.90;;;14.70;99.90;;;;;;5053696;28;20191;-44
2021/05/07 01:13:09;;;;;;;1999.90;999.90;;;14.70;99.90;;;;;;5053698;28;20620;-44
2021/05/07 01:15:36;;;;;;;1999.90;999.90;;;14.70;99.90;;;;;;5053610;28;20263;-45
2021/05/07 01:18:04;;;;;;;1999.90;999.90;;;14.70;99.90;;;;;;5053483;28;20200;-44
2021/05/07 01:20:33;;;;;;;1999.90;999.90;;;14.80;99.90;;;;;;5053558;28;20168;-44
2021/05/07 01:23:03;;;;;;;1999.90;999.90;;;14.80;99.90;;;;;;5053530;28;20177;-44
2021/05/07 01:25:43;;;;;;;1999.90;999.90;;;14.80;99.90;;;;;;5053738;28;20161;-44
2021/05/07 01:28:13;;;;;;;1999.90;999.90;;;14.70;99.90;;;;;;5053174;28;20236;-44
2021/05/07 01:30:42;;;;;;;1999.90;999.90;;;14.70;99.90;;;;;;5053311;28;20177;-44
2021/05/07 01:33:15;;;;;;;1999.90;999.90;;;14.70;99.90;;;;;;5053331;28;20221;-45
2021/05/07 01:35:43;;;;;;;1999.90;999.90;;;14.60;99.90;;;;;;5053348;28;20180;-43
2021/05/07 01:38:13;;;;;;;1999.90;999.90;;;14.60;99.90;;;;;;5053184;28;20216;-44
2021/05/07 01:40:42;;;;;;;1999.90;999.90;;;14.50;99.90;;;;;;5053323;28;20180;-43
2021/05/07 01:43:09;;;;;;;1999.90;999.90;;;14.50;99.90;;;;;;5053107;28;20692;-46
2021/05/07 01:45:38;;;;;;;1999.90;999.90;;;14.50;99.90;;;;;;5053067;28;20165;-42
2021/05/07 01:48:07;;;;;;;1999.90;999.90;;;14.40;99.90;;;;;;5052719;28;20169;-43
2021/05/07 01:50:36;;;;;;;1999.90;999.90;;;14.40;99.90;;;;;;5053238;28;20169;-42
2021/05/07 01:53:04;;;;;;;1999.90;999.90;;;14.40;99.90;;;;;;5053119;28;20206;-44
2021/05/07 01:55:33;;;;;;;1999.90;999.90;;;14.40;99.90;;;;;;5053123;28;20161;-43
2021/05/07 01:58:01;;;;;;;1999.90;999.90;;;14.30;99.90;;;;;;5053042;28;20197;-43
2021/05/07 02:00:29;;;;;;;1999.90;999.90;;;14.30;99.90;;;;;;5052914;28;20248;-44
2021/05/07 02:02:58;;;;;;;1999.90;999.90;;;14.30;99.90;;;;;;5052899;28;20169;-44
2021/05/07 02:05:27;;;;;;;1999.90;999.90;;;14.30;99.90;;;;;;5052857;28;20231;-49
2021/05/07 02:07:55;;;;;;;1999.90;999.90;;;14.40;99.90;;;;;;5052771;28;20177;-44
2021/05/07 02:10:28;;;;;;;1999.90;999.90;;;14.30;99.90;;;;;;5052810;28;20183;-47
2021/05/07 02:13:00;;;;;;;1999.90;999.90;;;14.40;99.90;;;;;;5052727;28;20626;-45
2021/05/07 02:15:27;;;;;;;1999.90;999.90;;;14.40;99.90;;;;;;5052813;28;20171;-44
2021/05/07 02:17:55;;;;;;;1999.90;999.90;;;14.30;99.90;;;;;;5052707;28;21307;-49
2021/05/07 02:20:25;;;;;;;1999.90;999.90;;;14.30;99.90;;;;;;5052690;28;20177;-46
2021/05/07 02:22:52;;;;;;;1999.90;999.90;;;14.40;99.90;;;;;;5052699;28;20165;-47
2021/05/07 02:25:21;;;;;;;1999.90;999.90;;;14.30;99.90;;;;;;5052657;28;20177;-48
2021/05/07 02:27:50;;;;;;;1999.90;999.90;;;14.30;99.90;;;;;;5052368;28;20255;-45
2021/05/07 02:30:20;;;;;;;1999.90;999.90;;;14.20;99.90;;;;;;5052556;28;20161;-47
2021/05/07 02:32:47;;;;;;;1999.90;999.90;;;14.20;99.90;;;;;;5052504;28;20176;-49
2021/05/07 02:35:13;;;;;;;1999.90;999.90;;;14.30;99.90;;;;;;5052447;28;20178;-45
2021/05/07 02:37:41;;;;;;;1999.90;999.90;;;14.30;99.90;;;;;;5052412;28;20330;-43
2021/05/07 02:40:09;;;;;;;1999.90;999.90;;;14.20;99.90;;;;;;5052398;28;20169;-46
2021/05/07 02:42:36;;;;;;;1999.90;999.90;;;14.30;99.90;;;;;;5052521;28;20173;-44
2021/05/07 02:45:05;;;;;;;1999.90;999.90;;;14.20;99.90;;;;;;5052355;28;20679;-43
2021/05/07 02:47:33;;;;;;;1999.90;999.90;;;14.20;99.90;;;;;;5052387;28;20266;-48
2021/05/07 02:50:03;;;;;;;1999.90;999.90;;;14.10;99.90;;;;;;5052324;28;20634;-45
2021/05/07 02:52:29;;;;;;;1999.90;999.90;;;13.90;99.90;;;;;;5052422;28;20164;-46
2021/05/07 02:54:56;;;;;;;1999.90;999.90;;;13.90;99.90;;;;;;5052314;28;20620;-44
2021/05/07 02:57:23;;;;;;;1999.90;999.90;;;14.00;99.90;;;;;;5052506;28;20570;-45
2021/05/07 02:59:50;;;;;;;1999.90;999.90;;;14.00;99.90;;;;;;5053092;28;20180;-45
2021/05/07 03:02:17;;;;;;;1999.90;999.90;;;14.00;99.90;;;;;;5056069;28;20628;-44
2021/05/07 03:04:44;;;;;;;1999.90;999.90;;;14.00;99.90;;;;;;5056088;28;20161;-44
2021/05/07 03:07:10;;;;;;;1999.90;999.90;;;14.00;99.90;;;;;;5056202;28;20180;-44
2021/05/07 03:09:37;;;;;;;1999.90;999.90;;;14.00;99.90;;;;;;5056051;28;20183;-45
2021/05/07 03:12:04;;;;;;;1999.90;999.90;;;14.00;99.90;;;;;;5056140;28;20193;-44
2021/05/07 03:14:31;;;;;;;1999.90;999.90;;;14.00;99.90;;;;;;5056016;28;20690;-44
2021/05/07 03:16:58;;;;;;;1999.90;999.90;;;14.10;99.90;;;;;;5055884;28;20200;-44
2021/05/07 03:19:25;;;;;;;1999.90;999.90;;;14.10;99.90;;;;;;5055843;28;20200;-45
2021/05/07 03:21:52;;;;;;;1999.90;999.90;;;14.10;99.90;;;;;;5055890;28;20307;-45
2021/05/07 03:24:18;;;;;;;1999.90;999.90;;;14.10;99.90;;;;;;5055610;28;20246;-45
2021/05/07 03:26:45;;;;;;;1999.90;999.90;;;14.00;99.90;;;;;;5055610;28;20612;-45
2021/05/07 03:29:12;;;;;;;1999.90;999.90;;;14.00;99.90;;;;;;5055776;28;20168;-45
2021/05/07 03:31:39;;;;;;;1999.90;999.90;;;14.00;99.90;;;;;;5055952;28;20173;-44
2021/05/07 03:34:06;;;;;;;1999.90;999.90;;;14.10;99.90;;;;;;5055675;28;20518;-45
2021/05/07 03:36:33;;;;;;;1999.90;999.90;;;14.10;99.90;;;;;;5055656;28;20619;-45
2021/05/07 03:39:00;;;;;;;1999.90;999.90;;;14.00;99.90;;;;;;5054633;28;20177;-47
2021/05/07 03:41:27;;;;;;;1999.90;999.90;;;14.00;99.90;;;;;;5055638;28;20207;-43
2021/05/07 03:43:54;;;;;;;1999.90;999.90;;;14.00;99.90;;;;;;5055545;28;20678;-45
2021/05/07 03:46:21;;;;;;;1999.90;999.90;;;14.00;99.90;;;;;;5055538;28;20161;-48
2021/05/07 03:48:48;;;;;;;1999.90;999.90;;;14.00;99.90;;;;;;5055445;28;20658;-43
2021/05/07 03:51:15;;;;;;;1999.90;999.90;;;14.00;99.90;;;;;;5055363;28;20630;-45
2021/05/07 03:53:41;;;;;;;1999.90;999.90;;;14.00;99.90;;;;;;5055490;28;20217;-43
2021/05/07 03:56:08;;;;;;;1999.90;999.90;;;14.00;99.90;;;;;;5055449;28;20158;-43
2021/05/07 03:58:35;;;;;;;1999.90;999.90;;;14.00;99.90;;;;;;5055173;28;20722;-45
2021/05/07 04:01:04;;;;;;;1999.90;999.90;;;14.00;99.90;;;;;;5055267;28;20165;-45
2021/05/07 04:03:31;;;;;;;1999.90;999.90;;;14.10;99.90;;;;;;5055106;28;20261;-50
2021/05/07 04:05:58;;;;;;;1999.90;999.90;;;14.10;99.90;;;;;;5055077;28;20172;-50
2021/05/07 04:08:28;;;;;;;1999.90;999.90;;;14.10;99.90;;;;;;5055089;28;20200;-45
2021/05/07 04:11:10;;;;;;;1999.90;999.90;;;14.10;99.90;;;;;;5054634;28;20551;-44
2021/05/07 04:13:40;;;;;;;1999.90;999.90;;;14.20;99.90;;;;;;5054925;28;20214;-43
2021/05/07 04:16:08;;;;;;;1999.90;999.90;;;14.20;99.90;;;;;;5054921;28;20184;-44
2021/05/07 04:18:36;;;;;;;1999.90;999.90;;;14.20;99.90;;;;;;5054821;28;20697;-45
2021/05/07 04:21:03;;;;;;;1999.90;999.90;;;14.30;99.90;;;;;;5054877;28;20177;-43
2021/05/07 04:23:30;;;;;;;1999.90;999.90;;;14.20;99.90;;;;;;5054715;28;20631;-43
2021/05/07 04:25:57;;;;;;;1999.90;999.90;;;14.30;99.90;;;;;;5054692;28;20166;-43
2021/05/07 04:28:24;;;;;;;1999.90;999.90;;;14.20;99.90;;;;;;5054506;28;20667;-44
2021/05/07 04:30:51;;;;;;;1999.90;999.90;;;14.20;99.90;;;;;;5054671;28;20161;-49
2021/05/07 04:33:17;;;;;;;1999.90;999.90;;;14.20;99.90;;;;;;5054618;28;20188;-47
2021/05/07 04:35:44;;;;;;;1999.90;999.90;;;14.10;99.90;;;;;;5054716;28;20183;-46
2021/05/07 04:38:12;;;;;;;1999.90;999.90;;;14.10;99.90;;;;;;5054483;28;20609;-45
2021/05/07 04:40:39;;;;;;;1999.90;999.90;;;14.10;99.90;;;;;;5054227;28;20227;-45
2021/05/07 04:43:06;;;;;;;1999.90;999.90;;;14.10;99.90;;;;;;5054391;28;20208;-47
2021/05/07 04:45:34;;;;;;;1999.90;999.90;;;14.10;99.90;;;;;;5054304;28;20537;-47
2021/05/07 04:48:02;;;;;;;1999.90;999.90;;;14.20;99.90;;;;;;5054337;28;20180;-48
2021/05/07 04:50:29;;;;;;;1999.90;999.90;;;14.20;99.90;;;;;;5054105;28;20505;-44
2021/05/07 04:52:56;;;;;;;1999.90;999.90;;;14.20;99.90;;;;;;5054251;28;20177;-46
2021/05/07 04:55:23;;;;;;;1999.90;999.90;;;14.20;99.90;;;;;;5054149;28;20631;-44
2021/05/07 04:57:50;;;;;;;1999.90;999.90;;;14.30;99.90;;;;;;5054113;28;20208;-44
2021/05/07 05:00:17;;;;;;;1999.90;999.90;;;14.40;99.90;;;;;;5054283;28;20200;-43
2021/05/07 05:02:44;;;;;;;1999.90;999.90;;;14.40;99.90;;;;;;5054160;28;20687;-45
2021/05/07 05:05:12;;;;;;;1999.90;999.90;;;14.40;99.90;;;;;;5054006;28;20226;-44
2021/05/07 05:07:46;;;;;;;1999.90;999.90;;;14.40;99.90;;;;;;5053852;28;20176;-43
2021/05/07 05:10:12;;;;;;;1999.90;999.90;;;14.50;99.90;;;;;;5052710;28;20649;-43
2021/05/07 05:12:39;;;;;;;1999.90;999.90;;;14.50;99.90;;;;;;5053794;28;20612;-46
2021/05/07 05:15:07;;;;;;;1999.90;999.90;;;14.40;99.90;;;;;;5053794;28;20173;-42
2021/05/07 05:17:34;;;;;;;1999.90;999.90;;;14.40;99.90;;;;;;5053600;28;20257;-43
2021/05/07 05:20:00;;;;;;;1999.90;999.90;;;14.40;99.90;;;;;;5053578;28;20177;-42
2021/05/07 05:22:27;;;;;;;1999.90;999.90;;;14.40;99.90;;;;;;5052921;28;20199;-43
2021/05/07 05:24:54;;;;;;;1999.90;999.90;;;14.40;99.90;;;;;;5053498;28;20169;-42
2021/05/07 05:27:21;;;;;;;1999.90;999.90;;;14.40;99.90;;;;;;5053322;28;20286;-48
2021/05/07 05:29:48;;;;;;;1999.90;999.90;;;14.40;99.90;;;;;;5053605;28;20199;-44
2021/05/07 05:32:14;;;;;;;1999.90;999.90;;;14.30;99.90;;;;;;5053394;28;20192;-44
2021/05/07 05:34:41;;;;;;;1999.90;999.90;;;14.30;99.90;;;;;;5053418;28;20204;-43
2021/05/07 05:37:08;;;;;;;1999.90;999.90;;;14.40;99.90;;;;;;5053195;28;20215;-46
2021/05/07 05:39:35;;;;;;;1999.90;999.90;;;14.30;99.90;;;;;;5053345;28;20169;-48
2021/05/07 05:42:01;;;;;;;1999.90;999.90;;;14.30;99.90;;;;;;5053572;28;20585;-43
2021/05/07 05:44:28;;;;;;;1999.90;999.90;;;14.30;99.90;;;;;;5053152;28;20268;-44
2021/05/07 05:46:55;;;;;;;1999.90;999.90;;;14.40;99.90;;;;;;5053182;28;20251;-48
2021/05/07 05:49:22;;;;;;;1999.90;999.90;;;14.50;99.90;;;;;;5053014;28;20211;-47
2021/05/07 05:51:49;;;;;;;1999.90;999.90;;;14.60;99.90;;;;;;5053200;28;20302;-44
2021/05/07 05:54:16;;;;;;;1999.90;999.90;;;14.70;99.90;;;;;;5052636;28;20173;-44
2021/05/07 05:56:42;;;;;;;1999.90;999.90;;;14.70;99.90;;;;;;5052793;28;20283;-44
2021/05/07 05:59:09;;;;;;;1999.90;999.90;;;14.70;99.90;;;;;;5052949;28;20187;-43
2021/05/07 06:01:36;;;;;;;1999.90;999.90;;;14.80;99.90;;;;;;5052600;28;20177;-44
2021/05/07 06:04:03;;;;;;;1999.90;999.90;;;14.80;99.90;;;;;;5052818;28;20643;-38
2021/05/07 06:06:30;;;;;;;1999.90;999.90;;;14.80;99.90;;;;;;5052825;28;20177;-42
2021/05/07 06:08:57;;;;;;;1999.90;999.90;;;14.90;99.90;;;;;;5052783;28;20169;-42
2021/05/07 06:11:24;;;;;;;1999.90;999.90;;;15.10;99.90;;;;;;5050904;28;20169;-44
2021/05/07 06:13:51;;;;;;;1999.90;999.90;;;15.20;99.90;;;;;;5052149;28;20193;-42
2021/05/07 06:16:17;;;;;;;1999.90;999.90;;;15.40;99.90;;;;;;5049073;28;20248;-46
2021/05/07 06:18:44;;;;;;;1999.90;999.90;;;15.50;99.90;;;;;;5050897;28;20239;-47
2021/05/07 06:21:11;;;;;;;1999.90;999.90;;;15.60;99.90;;;;;;5051654;28;20188;-46
2021/05/07 06:23:37;;;;;;;1999.90;999.90;;;15.70;99.90;;;;;;5052202;28;20231;-53
2021/05/07 06:26:04;;;;;;;1999.90;999.90;;;15.90;99.90;;;;;;5052348;28;20537;-42
2021/05/07 06:28:31;;;;;;;1999.90;999.90;;;16.00;99.90;;;;;;5051186;28;20281;-44
2021/05/07 06:30:59;;;;;;;1999.90;999.90;;;16.00;99.90;;;;;;5052191;28;20176;-44
2021/05/07 06:33:26;;;;;;;1999.90;999.90;;;16.10;99.90;;;;;;5053782;28;20537;-46
2021/05/07 06:35:54;;;;;;;1999.90;999.90;;;16.10;99.90;;;;;;5056569;28;20169;-54
2021/05/07 06:38:21;;;;;;;1999.90;999.90;;;16.10;99.90;;;;;;5056437;28;20655;-50
2021/05/07 06:40:47;;;;;;;1999.90;999.90;;;16.30;99.90;;;;;;5056262;28;20227;-45
2021/05/07 06:43:15;;;;;;;1999.90;999.90;;;16.20;99.90;;;;;;5056099;28;20627;-50
2021/05/07 06:45:42;;;;;;;1999.90;999.90;;;16.20;99.90;;;;;;5056398;28;20228;-56
2021/05/07 06:48:09;;;;;;;1999.90;999.90;;;16.20;99.90;;;;;;5056332;28;20242;-45
2021/05/07 06:50:35;;;;;;;1999.90;999.90;;;16.30;99.90;;;;;;5056166;28;20165;-50
2021/05/07 06:53:02;;;;;;;1999.90;999.90;;;16.50;99.90;;;;;;5055870;28;20654;-47
2021/05/07 06:55:29;;;;;;;1999.90;999.90;;;16.60;99.90;;;;;;5056088;28;20232;-44
2021/05/07 06:57:56;;;;;;;1999.90;999.90;;;16.60;99.90;;;;;;5055920;28;20212;-51
2021/05/07 07:00:22;;;;;;;1999.90;999.90;;;16.70;99.90;;;;;;5055939;28;20196;-43
2021/05/07 07:02:49;;;;;;;1999.90;999.90;;;16.70;99.90;;;;;;5055952;28;20170;-42
2021/05/07 07:05:16;;;;;;;1999.90;999.90;;;16.60;99.90;;;;;;5055788;28;20192;-49
2021/05/07 07:07:42;;;;;;;1999.90;999.90;;;16.60;99.90;;;;;;5055677;28;20551;-42
2021/05/07 07:10:10;;;;;;;1999.90;999.90;;;16.50;99.90;;;;;;5055818;28;20173;-44
2021/05/07 07:12:36;;;;;;;1999.90;999.90;;;16.50;99.90;;;;;;5055723;28;20227;-50
2021/05/07 07:15:04;;;;;;;1999.90;999.90;;;16.50;99.90;;;;;;5055484;28;20166;-54
2021/05/07 07:17:32;;;;;;;1999.90;999.90;;;16.40;99.90;;;;;;5055380;28;20212;-42
2021/05/07 07:19:59;;;;;;;1999.90;999.90;;;16.50;99.90;;;;;;5055199;28;20185;-44
2021/05/07 07:22:25;;;;;;;1999.90;999.90;;;16.50;99.90;;;;;;5055852;28;20624;-42
2021/05/07 07:24:52;;;;;;;1999.90;999.90;;;16.60;99.90;;;;;;5055764;28;20168;-41
2021/05/07 07:27:19;;;;;;;1999.90;999.90;;;16.70;99.90;;;;;;5055380;28;20221;-42
2021/05/07 07:29:47;;;;;;;1999.90;999.90;;;16.70;99.90;;;;;;5055399;28;20165;-41
2021/05/07 07:32:14;;;;;;;1999.90;999.90;;;16.80;99.90;;;;;;5055626;28;20184;-42
2021/05/07 07:34:41;;;;;;;1999.90;999.90;;;16.90;99.90;;;;;;5055167;28;20208;-43
2021/05/07 07:37:08;;;;;;;1999.90;999.90;;;17.00;99.90;;;;;;5055066;28;20189;-44
2021/05/07 07:39:35;;;;;;;1999.90;999.90;;;17.00;99.90;;;;;;5055318;28;20169;-43
2021/05/07 07:42:01;;;;;;;1999.90;999.90;;;17.00;99.90;;;;;;5055127;28;20197;-47
2021/05/07 07:44:28;;;;;;;1999.90;999.90;;;17.00;99.90;;;;;;5054961;28;20170;-45
2021/05/07 07:46:55;;;;;;;1999.90;999.90;;;16.90;99.90;;;;;;5054865;28;20219;-57
2021/05/07 07:49:21;;;;;;;1999.90;999.90;;;17.00;99.90;;;;;;5055173;28;20258;-43
2021/05/07 07:51:48;;;;;;;1999.90;999.90;;;17.10;99.90;;;;;;5054922;28;20168;-47
2021/05/07 07:54:15;;;;;;;1999.90;999.90;;;17.10;99.90;;;;;;5054988;28;20165;-56
2021/05/07 07:56:42;;;;;;;1999.90;999.90;;;17.10;99.90;;;;;;5054956;28;20169;-44
2021/05/07 07:59:08;;;;;;;1999.90;999.90;;;17.20;99.90;;;;;;5055041;28;20258;-47
2021/05/07 08:01:35;;;;;;;1999.90;999.90;;;17.30;99.90;;;;;;5054661;28;20172;-45
2021/05/07 08:04:02;;;;;;;1999.90;999.90;;;17.20;99.90;;;;;;5054895;28;20252;-44
2021/05/07 08:06:29;;;;;;;1999.90;999.90;;;17.20;99.90;;;;;;5054894;28;20165;-45
2021/05/07 08:08:56;;;;;;;1999.90;999.90;;;17.20;99.90;;;;;;5054781;28;20185;-44
2021/05/07 08:11:23;;;;;;;1999.90;999.90;;;17.20;99.90;;;;;;5054801;28;20177;-45
2021/05/07 08:13:50;;;;;;;1999.90;999.90;;;17.30;99.90;;;;;;5054926;28;20517;-47
2021/05/07 08:16:16;;;;;;;1999.90;999.90;;;17.30;99.90;;;;;;5054684;28;20197;-44
2021/05/07 08:18:43;;;;;;;1999.90;999.90;;;17.50;99.90;;;;;;5054485;28;20193;-44
2021/05/07 08:21:10;;;;;;;1999.90;999.90;;;17.50;99.90;;;;;;5055088;28;20174;-48
2021/05/07 08:23:37;;;;;;;1999.90;999.90;;;17.40;99.90;;;;;;5053274;28;20537;-47
2021/05/07 08:26:04;;;;;;;1999.90;999.90;;;17.40;99.90;;;;;;5054577;28;20172;-46
2021/05/07 08:28:30;;;;;;;1999.90;999.90;;;17.60;99.90;;;;;;5054443;28;20300;-47
2021/05/07 08:30:57;;;;;;;1999.90;999.90;;;17.70;99.90;;;;;;5054435;28;20161;-49
2021/05/07 08:33:24;;;;;;;1999.90;999.90;;;17.90;99.90;;;;;;5054587;28;20169;-52
2021/05/07 08:35:51;;;;;;;1999.90;999.90;;;17.90;99.90;;;;;;5054375;28;20173;-53
2021/05/07 08:38:17;;;;;;;1999.90;999.90;;;17.80;99.90;;;;;;5054234;28;20663;-55
2021/05/07 08:40:44;;;;;;;1999.90;999.90;;;17.70;99.90;;;;;;5054226;28;20172;-56
2021/05/07 08:43:13;;;;;;;1999.90;999.90;;;17.60;99.90;;;;;;5054161;28;20242;-57
2021/05/07 08:45:40;;;;;;;1999.90;999.90;;;17.70;99.90;;;;;;5054339;28;20176;-52
2021/05/07 08:48:08;;;;;;;1999.90;999.90;;;17.90;99.90;;;;;;5053901;28;20166;-50
2021/05/07 08:50:35;;;;;;;1999.90;999.90;;;17.90;99.90;;;;;;5054187;28;20599;-50
2021/05/07 08:53:02;;;;;;;1999.90;999.90;;;17.90;99.90;;;;;;5053910;28;20261;-54
2021/05/07 08:55:29;;;;;;;1999.90;999.90;;;18.10;99.90;;;;;;5053822;28;20169;-52
2021/05/07 08:57:55;;;;;;;1999.90;999.90;;;18.30;99.90;;;;;;5052549;28;20254;-50
2021/05/07 09:00:22;;;;;;;1999.90;999.90;;;18.30;99.90;;;;;;5053689;28;20248;-49
2021/05/07 09:02:49;;;;;;;1999.90;999.90;;;18.10;99.90;;;;;;5053440;28;20200;-51
2021/05/07 09:05:29;;;;;;;1999.90;999.90;;;18.10;99.90;;;;;;5053392;28;20214;-48
2021/05/07 09:07:56;;;;;;;1999.90;999.90;;;18.20;99.90;;;;;;5053416;28;20240;-48
2021/05/07 09:10:32;;;;;;;1999.90;999.90;;;18.40;99.90;;;;;;5053417;28;20176;-52
2021/05/07 09:12:59;;;;;;;1999.90;999.90;;;18.80;99.90;;;;;;5053380;28;20149;-50
2021/05/07 09:15:43;;;;;;;1999.90;999.90;;;19.20;99.90;;;;;;5053183;28;20173;-53
2021/05/07 09:18:11;;;;;;;1999.90;999.90;;;19.30;99.90;;;;;;5053452;28;20201;-49
2021/05/07 09:20:49;;;;;;;1999.90;999.90;;;19.30;99.90;;;;;;5053188;28;20169;-53
2021/05/07 09:23:17;;;;;;;1999.90;999.90;;;19.30;99.90;;;;;;5053208;28;20173;-55
2021/05/07 09:25:47;;;;;;;1999.90;999.90;;;19.30;99.90;;;;;;5053271;28;20211;-52
2021/05/07 09:28:17;;;;;;;1999.90;999.90;;;19.20;99.90;;;;;;5053025;28;20241;-48
2021/05/07 09:30:46;;;;;;;1999.90;999.90;;;19.20;99.90;;;;;;5052926;28;20506;-59
2021/05/07 09:33:15;;;;;;;1999.90;999.90;;;19.00;99.90;;;;;;5053117;28;20173;-43
2021/05/07 09:35:43;;;;;;;1999.90;999.90;;;19.40;99.90;;;;;;5052809;28;20166;-44
2021/05/07 09:38:12;;;;;;;1999.90;999.90;;;19.60;99.90;;;;;;5052526;28;20682;-43
2021/05/07 09:40:42;;;;;;;1999.90;999.90;;;19.80;99.90;;;;;;5053053;28;20628;-46
2021/05/07 09:43:23;;;;;;;1999.90;999.90;;;19.90;99.00;;;;;;5053015;28;20165;-46
2021/05/07 09:45:51;;;;;;;1999.90;999.90;;;20.00;98.80;;;;;;5053037;28;20208;-47
2021/05/07 09:48:25;;;;;;;1999.90;999.90;;;19.80;99.00;;;;;;5052717;28;20202;-44
2021/05/07 09:51:05;;;;;;;1999.90;999.90;;;19.70;99.60;;;;;;5052953;28;20158;-47
2021/05/07 09:53:35;;;;;;;1999.90;999.90;;;19.70;99.70;;;;;;5053003;28;20165;-48
2021/05/07 09:56:27;;;;;;;1999.90;999.90;;;19.80;99.70;;;;;;5052867;28;20176;-44
2021/05/07 09:58:54;;;;;;;1999.90;999.90;;;19.90;99.20;;;;;;5052734;28;20655;-46
2021/05/07 10:01:20;;;;;;;1999.90;999.90;;;19.90;98.90;;;;;;5052583;28;20219;-44
2021/05/07 10:03:47;;;;;;;1999.90;999.90;;;19.90;99.00;;;;;;5052771;28;20713;-54
2021/05/07 10:06:17;;;;;;;1999.90;999.90;;;19.90;99.10;;;;;;5052680;28;20200;-59
2021/05/07 10:08:45;;;;;;;1999.90;999.90;;;20.30;98.40;;;;;;5051991;28;20188;-59
2021/05/07 10:11:13;;;;;;;1999.90;999.90;;;20.80;97.20;;;;;;5052489;28;20584;-59
2021/05/07 10:13:40;;;;;;;1999.90;999.90;;;20.80;96.50;;;;;;5052496;28;20173;-63
2021/05/07 10:16:09;;;;;;;1999.90;999.90;;;20.90;96.50;;;;;;5051098;28;20169;-59
2021/05/07 10:18:38;;;;;;;1999.90;999.90;;;20.80;96.50;;;;;;5052046;28;20561;-59
2021/05/07 10:21:05;;;;;;;1999.90;999.90;;;20.40;97.00;;;;;;5052239;28;20183;-55
2021/05/07 10:23:34;;;;;;;1999.90;999.90;;;20.40;97.30;;;;;;5052192;28;20168;-58
2021/05/07 10:26:04;;;;;;;1999.90;999.90;;;20.10;97.80;;;;;;5052223;28;20181;-57
2021/05/07 10:28:51;;;;;;;1999.90;999.90;;;20.10;98.10;;;;;;5052149;28;20221;-52
2021/05/07 10:31:21;;;;;;;1999.90;999.90;;;19.90;98.70;;;;;;5052296;28;20204;-54
2021/05/07 10:34:00;;;;;;;1999.90;999.90;;;19.80;99.50;;;;;;5052106;28;20650;-55
2021/05/07 10:36:41;;;;;;;1999.90;999.90;;;19.70;99.90;;;;;;5052162;28;20162;-53
2021/05/07 10:39:20;;;;;;;1999.90;999.90;;;19.50;99.90;;;;;;5052364;28;20169;-51
2021/05/07 10:41:49;;;;;;;1999.90;999.90;;;19.40;99.90;;;;;;5052320;28;20193;-46
2021/05/07 10:44:17;;;;;;;1999.90;999.90;;;19.50;99.90;;;;;;5052264;28;20188;-47
2021/05/07 10:46:45;;;;;;;1999.90;999.90;;;19.50;99.90;;;;;;5052484;28;20252;-47
2021/05/07 10:49:13;;;;;;;1999.90;999.90;;;19.60;99.90;;;;;;5052574;28;20196;-47
2021/05/07 10:51:40;;;;;;;1999.90;999.90;;;19.70;99.90;;;;;;5052644;28;20177;-47
2021/05/07 10:54:12;;;;;;;1999.90;999.90;;;19.80;99.00;;;;;;5052191;28;20173;-47
2021/05/07 10:56:43;;;;;;;1999.90;999.90;;;19.80;98.20;;;;;;5052330;28;20203;-53
2021/05/07 10:59:21;;;;;;;1999.90;999.90;;;20.10;98.00;;;;;;5052133;28;20263;-48
2021/05/07 11:01:58;;;;;;;1999.90;999.90;;;20.20;97.30;;;;;;5052571;28;20176;-47
2021/05/07 11:04:25;;;;;;;1999.90;999.90;;;20.10;96.90;;;;;;5052181;28;20244;-47
2021/05/07 11:07:04;;;;;;;1999.90;999.90;;;19.80;98.10;;;;;;5052123;28;20172;-54
2021/05/07 11:09:30;;;;;;;1999.90;999.90;;;19.90;97.60;;;;;;5052135;28;20172;-50
2021/05/07 11:12:05;;;;;;;1999.90;999.90;;;19.80;98.00;;;;;;5051937;28;20165;-47
2021/05/07 11:14:42;;;;;;;1999.90;999.90;;;19.70;98.40;;;;;;5051898;28;20160;-48
2021/05/07 11:17:17;;;;;;;1999.90;999.90;;;19.50;98.90;;;;;;5052029;28;20682;-47
2021/05/07 11:19:44;;;;;;;1999.90;999.90;;;19.40;98.90;;;;;;5052325;28;20231;-46
2021/05/07 11:22:11;;;;;;;1999.90;999.90;;;19.00;99.90;;;;;;5055837;28;20171;-46
2021/05/07 11:24:40;;;;;;;1999.90;999.90;;;18.90;99.90;;;;;;5055941;28;20220;-47
2021/05/07 11:27:23;;;;;;;1999.90;999.90;;;19.00;99.90;;;;;;5055769;28;20217;-47
2021/05/07 11:29:51;;;;;;;1999.90;999.90;;;19.00;99.90;;;;;;5055769;28;20200;-48
2021/05/07 11:32:25;;;;;;;1999.90;999.90;;;19.20;99.60;;;;;;5055896;28;20165;-48
2021/05/07 11:34:52;;;;;;;1999.90;999.90;;;19.10;99.90;;;;;;5055603;28;20187;-48
2021/05/07 11:37:22;;;;;;;1999.90;999.90;;;19.30;99.50;;;;;;5055584;28;20201;-49
2021/05/07 11:40:01;;;;;;;1999.90;999.90;;;19.30;99.10;;;;;;5055477;28;20230;-49
2021/05/07 11:42:38;;;;;;;1999.90;999.90;;;19.20;99.90;;;;;;5055511;28;20184;-47
2021/05/07 11:45:25;;;;;;;1999.90;999.90;;;19.00;99.90;;;;;;5055413;28;20685;-50
2021/05/07 11:47:53;;;;;;;1999.90;999.90;;;18.80;99.90;;;;;;5055571;28;20165;-48
2021/05/07 11:50:22;;;;;;;1999.90;999.90;;;18.90;99.90;;;;;;5055298;28;20212;-46
2021/05/07 11:52:50;;;;;;;1999.90;999.90;;;18.90;99.90;;;;;;5055164;28;20176;-48
2021/05/07 11:55:20;;;;;;;1999.90;999.90;;;18.80;99.90;;;;;;5055334;28;20169;-47
2021/05/07 11:58:08;;;;;;;1999.90;999.90;;;18.80;99.90;;;;;;5055307;28;20293;-47
2021/05/07 12:00:37;;;;;;;1999.90;999.90;;;18.60;99.90;;;;;;5055129;28;20620;-48
2021/05/07 12:03:14;;;;;;;1999.90;999.90;;;18.60;99.90;;;;;;5055079;28;20219;-47
2021/05/07 12:05:46;;;;;;;1999.90;999.90;;;18.70;99.90;;;;;;5055080;28;20149;-46